sensor_id;sensor_type;location;lat;lon;timestamp;P1;durP1;ratioP1;P2;durP2;ratioP2
12052;SDS011;6087;48.982;12.064;2023-08-12T00:01:05;4.13;;;3.03;;
12052;SDS011;6087;48.982;12.064;2023-08-12T00:03:32;3.55;;;3.25;;
12052;SDS011;6087;48.982;12.064;2023-08-12T00:05:59;3.30;;;3.00;;
12052;SDS011;6087;48.982;12.064;2023-08-12T00:08:27;3.63;;;3.33;;
12052;SDS011;6087;48.982;12.064;2023-08-12T00:10:54;4.50;;;3.10;;
12052;SDS011;6087;48.982;12.064;2023-08-12T00:13:21;3.92;;;3.10;;
12052;SDS011;6087;48.982;12.064;2023-08-12T00:15:49;4.25;;;3.40;;
12052;SDS011;6087;48.982;12.064;2023-08-12T00:18:16;4.30;;;3.40;;
12052;SDS011;6087;48.982;12.064;2023-08-12T00:20:43;3.83;;;3.53;;
12052;SDS011;6087;48.982;12.064;2023-08-12T00:23:10;3.80;;;2.85;;
12052;SDS011;6087;48.982;12.064;2023-08-12T00:25:38;3.28;;;2.97;;
12052;SDS011;6087;48.982;12.064;2023-08-12T00:28:05;4.25;;;3.53;;
12052;SDS011;6087;48.982;12.064;2023-08-12T00:30:32;3.67;;;3.38;;
12052;SDS011;6087;48.982;12.064;2023-08-12T00:33:00;4.35;;;3.25;;
12052;SDS011;6087;48.982;12.064;2023-08-12T00:35:27;3.75;;;3.45;;
12052;SDS011;6087;48.982;12.064;2023-08-12T00:37:54;3.85;;;3.45;;
12052;SDS011;6087;48.982;12.064;2023-08-12T00:40:21;5.40;;;3.55;;
12052;SDS011;6087;48.982;12.064;2023-08-12T00:42:49;3.70;;;3.35;;
12052;SDS011;6087;48.982;12.064;2023-08-12T00:45:16;3.92;;;3.63;;
12052;SDS011;6087;48.982;12.064;2023-08-12T00:47:43;4.28;;;3.03;;
12052;SDS011;6087;48.982;12.064;2023-08-12T00:50:12;3.38;;;3.08;;
12052;SDS011;6087;48.982;12.064;2023-08-12T00:52:40;3.67;;;3.35;;
12052;SDS011;6087;48.982;12.064;2023-08-12T00:55:08;3.63;;;3.30;;
12052;SDS011;6087;48.982;12.064;2023-08-12T00:57:36;3.97;;;3.50;;
12052;SDS011;6087;48.982;12.064;2023-08-12T01:00:03;5.43;;;3.38;;
12052;SDS011;6087;48.982;12.064;2023-08-12T01:02:31;4.50;;;3.20;;
12052;SDS011;6087;48.982;12.064;2023-08-12T01:04:58;3.45;;;3.15;;
12052;SDS011;6087;48.982;12.064;2023-08-12T01:07:26;3.78;;;3.40;;
12052;SDS011;6087;48.982;12.064;2023-08-12T01:09:56;3.47;;;2.90;;
12052;SDS011;6087;48.982;12.064;2023-08-12T01:12:24;3.90;;;3.20;;
12052;SDS011;6087;48.982;12.064;2023-08-12T01:14:56;3.63;;;2.85;;
12052;SDS011;6087;48.982;12.064;2023-08-12T01:17:26;3.38;;;3.08;;
12052;SDS011;6087;48.982;12.064;2023-08-12T01:19:55;5.10;;;3.15;;
12052;SDS011;6087;48.982;12.064;2023-08-12T01:22:23;3.45;;;3.15;;
12052;SDS011;6087;48.982;12.064;2023-08-12T01:24:53;3.28;;;3.08;;
12052;SDS011;6087;48.982;12.064;2023-08-12T01:27:20;3.63;;;3.17;;
12052;SDS011;6087;48.982;12.064;2023-08-12T01:29:48;3.95;;;2.90;;
12052;SDS011;6087;48.982;12.064;2023-08-12T01:32:20;3.45;;;3.15;;
12052;SDS011;6087;48.982;12.064;2023-08-12T01:34:53;4.53;;;3.20;;
12052;SDS011;6087;48.982;12.064;2023-08-12T01:37:28;3.30;;;3.00;;
12052;SDS011;6087;48.982;12.064;2023-08-12T01:39:59;3.47;;;3.17;;
12052;SDS011;6087;48.982;12.064;2023-08-12T01:42:29;3.80;;;3.20;;
12052;SDS011;6087;48.982;12.064;2023-08-12T01:44:58;3.65;;;3.20;;
12052;SDS011;6087;48.982;12.064;2023-08-12T01:47:26;4.55;;;3.47;;
12052;SDS011;6087;48.982;12.064;2023-08-12T01:49:53;3.97;;;2.78;;
12052;SDS011;6087;48.982;12.064;2023-08-12T01:52:20;3.28;;;3.00;;
12052;SDS011;6087;48.982;12.064;2023-08-12T01:54:47;3.08;;;2.88;;
12052;SDS011;6087;48.982;12.064;2023-08-12T01:57:16;3.80;;;3.22;;
12052;SDS011;6087;48.982;12.064;2023-08-12T01:59:43;4.40;;;3.33;;
12052;SDS011;6087;48.982;12.064;2023-08-12T02:02:10;3.65;;;3.35;;
12052;SDS011;6087;48.982;12.064;2023-08-12T02:04:46;3.13;;;2.83;;
12052;SDS011;6087;48.982;12.064;2023-08-12T02:07:13;4.05;;;3.70;;
12052;SDS011;6087;48.982;12.064;2023-08-12T02:09:40;3.22;;;3.03;;
12052;SDS011;6087;48.982;12.064;2023-08-12T02:12:07;4.57;;;2.88;;
12052;SDS011;6087;48.982;12.064;2023-08-12T02:14:35;3.35;;;3.15;;
12052;SDS011;6087;48.982;12.064;2023-08-12T02:17:02;3.50;;;3.17;;
12052;SDS011;6087;48.982;12.064;2023-08-12T02:19:30;3.83;;;3.22;;
12052;SDS011;6087;48.982;12.064;2023-08-12T02:21:58;5.00;;;3.22;;
12052;SDS011;6087;48.982;12.064;2023-08-12T02:24:28;3.55;;;3.15;;
12052;SDS011;6087;48.982;12.064;2023-08-12T02:26:57;3.97;;;3.67;;
12052;SDS011;6087;48.982;12.064;2023-08-12T02:29:24;5.05;;;4.00;;
12052;SDS011;6087;48.982;12.064;2023-08-12T02:31:53;6.60;;;3.88;;
12052;SDS011;6087;48.982;12.064;2023-08-12T02:34:20;4.40;;;3.53;;
12052;SDS011;6087;48.982;12.064;2023-08-12T02:36:49;3.53;;;3.30;;
12052;SDS011;6087;48.982;12.064;2023-08-12T02:39:16;4.40;;;3.45;;
12052;SDS011;6087;48.982;12.064;2023-08-12T02:41:43;5.53;;;3.92;;
12052;SDS011;6087;48.982;12.064;2023-08-12T02:44:16;3.88;;;3.58;;
12052;SDS011;6087;48.982;12.064;2023-08-12T02:46:43;3.92;;;3.63;;
12052;SDS011;6087;48.982;12.064;2023-08-12T02:49:12;3.72;;;3.42;;
12052;SDS011;6087;48.982;12.064;2023-08-12T02:51:39;3.92;;;3.53;;
12052;SDS011;6087;48.982;12.064;2023-08-12T02:54:05;5.03;;;4.10;;
12052;SDS011;6087;48.982;12.064;2023-08-12T02:56:32;4.18;;;3.67;;
12052;SDS011;6087;48.982;12.064;2023-08-12T02:58:59;4.43;;;3.95;;
12052;SDS011;6087;48.982;12.064;2023-08-12T03:01:26;4.43;;;4.03;;
12052;SDS011;6087;48.982;12.064;2023-08-12T03:03:54;4.18;;;3.83;;
12052;SDS011;6087;48.982;12.064;2023-08-12T03:06:22;4.43;;;3.90;;
12052;SDS011;6087;48.982;12.064;2023-08-12T03:08:49;4.32;;;3.92;;
12052;SDS011;6087;48.982;12.064;2023-08-12T03:11:16;3.90;;;3.50;;
12052;SDS011;6087;48.982;12.064;2023-08-12T03:13:43;4.13;;;3.75;;
12052;SDS011;6087;48.982;12.064;2023-08-12T03:16:11;5.47;;;4.28;;
12052;SDS011;6087;48.982;12.064;2023-08-12T03:18:39;7.00;;;4.03;;
12052;SDS011;6087;48.982;12.064;2023-08-12T03:21:06;5.65;;;4.40;;
12052;SDS011;6087;48.982;12.064;2023-08-12T03:23:34;4.18;;;3.85;;
12052;SDS011;6087;48.982;12.064;2023-08-12T03:26:02;5.60;;;4.45;;
12052;SDS011;6087;48.982;12.064;2023-08-12T03:28:29;3.75;;;3.45;;
12052;SDS011;6087;48.982;12.064;2023-08-12T03:30:56;5.43;;;4.15;;
12052;SDS011;6087;48.982;12.064;2023-08-12T03:33:23;5.00;;;3.85;;
12052;SDS011;6087;48.982;12.064;2023-08-12T03:35:50;3.75;;;3.45;;
12052;SDS011;6087;48.982;12.064;2023-08-12T03:38:17;4.20;;;3.90;;
12052;SDS011;6087;48.982;12.064;2023-08-12T03:40:45;4.47;;;4.13;;
12052;SDS011;6087;48.982;12.064;2023-08-12T03:43:12;4.68;;;4.28;;
12052;SDS011;6087;48.982;12.064;2023-08-12T03:45:39;4.85;;;4.45;;
12052;SDS011;6087;48.982;12.064;2023-08-12T03:48:07;4.53;;;4.05;;
12052;SDS011;6087;48.982;12.064;2023-08-12T03:50:34;5.07;;;3.88;;
12052;SDS011;6087;48.982;12.064;2023-08-12T03:53:01;4.75;;;4.35;;
12052;SDS011;6087;48.982;12.064;2023-08-12T03:55:29;6.85;;;4.53;;
12052;SDS011;6087;48.982;12.064;2023-08-12T03:57:58;8.27;;;4.10;;
12052;SDS011;6087;48.982;12.064;2023-08-12T04:00:25;4.72;;;4.32;;
12052;SDS011;6087;48.982;12.064;2023-08-12T04:02:53;4.35;;;3.90;;
12052;SDS011;6087;48.982;12.064;2023-08-12T04:05:20;4.70;;;4.20;;
12052;SDS011;6087;48.982;12.064;2023-08-12T04:07:47;5.63;;;4.50;;
12052;SDS011;6087;48.982;12.064;2023-08-12T04:10:14;4.82;;;4.03;;
12052;SDS011;6087;48.982;12.064;2023-08-12T04:12:41;4.80;;;4.20;;
12052;SDS011;6087;48.982;12.064;2023-08-12T04:15:12;8.05;;;4.45;;
12052;SDS011;6087;48.982;12.064;2023-08-12T04:17:42;5.85;;;4.30;;
12052;SDS011;6087;48.982;12.064;2023-08-12T04:20:11;4.47;;;4.07;;
12052;SDS011;6087;48.982;12.064;2023-08-12T04:22:40;5.93;;;4.60;;
12052;SDS011;6087;48.982;12.064;2023-08-12T04:25:07;4.50;;;4.10;;
12052;SDS011;6087;48.982;12.064;2023-08-12T04:27:34;5.05;;;4.55;;
12052;SDS011;6087;48.982;12.064;2023-08-12T04:30:01;4.53;;;4.22;;
12052;SDS011;6087;48.982;12.064;2023-08-12T04:32:30;5.22;;;4.65;;
12052;SDS011;6087;48.982;12.064;2023-08-12T04:34:57;7.18;;;4.15;;
12052;SDS011;6087;48.982;12.064;2023-08-12T04:37:23;5.75;;;4.43;;
12052;SDS011;6087;48.982;12.064;2023-08-12T04:39:51;4.68;;;4.30;;
12052;SDS011;6087;48.982;12.064;2023-08-12T04:42:18;4.85;;;4.38;;
12052;SDS011;6087;48.982;12.064;2023-08-12T04:44:45;4.35;;;3.97;;
12052;SDS011;6087;48.982;12.064;2023-08-12T04:47:11;4.47;;;4.13;;
12052;SDS011;6087;48.982;12.064;2023-08-12T04:49:40;4.35;;;3.95;;
12052;SDS011;6087;48.982;12.064;2023-08-12T04:52:07;5.68;;;4.63;;
12052;SDS011;6087;48.982;12.064;2023-08-12T04:54:34;5.78;;;5.18;;
12052;SDS011;6087;48.982;12.064;2023-08-12T04:57:00;4.95;;;4.53;;
12052;SDS011;6087;48.982;12.064;2023-08-12T04:59:27;5.20;;;4.70;;
12052;SDS011;6087;48.982;12.064;2023-08-12T05:01:54;5.10;;;4.57;;
12052;SDS011;6087;48.982;12.064;2023-08-12T05:04:21;5.03;;;4.63;;
12052;SDS011;6087;48.982;12.064;2023-08-12T05:06:49;5.82;;;4.40;;
12052;SDS011;6087;48.982;12.064;2023-08-12T05:09:16;5.18;;;4.70;;
12052;SDS011;6087;48.982;12.064;2023-08-12T05:11:43;4.88;;;4.47;;
12052;SDS011;6087;48.982;12.064;2023-08-12T05:14:10;5.70;;;5.03;;
12052;SDS011;6087;48.982;12.064;2023-08-12T05:16:37;5.90;;;4.30;;
12052;SDS011;6087;48.982;12.064;2023-08-12T05:19:04;5.35;;;4.45;;
12052;SDS011;6087;48.982;12.064;2023-08-12T05:21:37;4.60;;;4.20;;
12052;SDS011;6087;48.982;12.064;2023-08-12T05:24:05;5.28;;;4.78;;
12052;SDS011;6087;48.982;12.064;2023-08-12T05:26:33;4.65;;;4.25;;
12052;SDS011;6087;48.982;12.064;2023-08-12T05:29:06;4.60;;;4.15;;
12052;SDS011;6087;48.982;12.064;2023-08-12T05:31:33;4.38;;;3.97;;
12052;SDS011;6087;48.982;12.064;2023-08-12T05:34:00;4.82;;;4.40;;
12052;SDS011;6087;48.982;12.064;2023-08-12T05:36:27;5.68;;;4.38;;
12052;SDS011;6087;48.982;12.064;2023-08-12T05:38:54;4.35;;;3.95;;
12052;SDS011;6087;48.982;12.064;2023-08-12T05:41:22;4.15;;;3.75;;
12052;SDS011;6087;48.982;12.064;2023-08-12T05:43:55;4.50;;;4.10;;
12052;SDS011;6087;48.982;12.064;2023-08-12T05:46:22;4.38;;;3.97;;
12052;SDS011;6087;48.982;12.064;2023-08-12T05:48:49;4.65;;;4.25;;
12052;SDS011;6087;48.982;12.064;2023-08-12T05:51:15;5.22;;;4.53;;
12052;SDS011;6087;48.982;12.064;2023-08-12T05:53:42;4.47;;;4.07;;
12052;SDS011;6087;48.982;12.064;2023-08-12T05:56:10;4.80;;;4.25;;
12052;SDS011;6087;48.982;12.064;2023-08-12T05:58:38;4.90;;;4.40;;
12052;SDS011;6087;48.982;12.064;2023-08-12T06:01:05;4.65;;;4.25;;
12052;SDS011;6087;48.982;12.064;2023-08-12T06:03:32;5.57;;;4.55;;
12052;SDS011;6087;48.982;12.064;2023-08-12T06:05:58;4.72;;;4.20;;
12052;SDS011;6087;48.982;12.064;2023-08-12T06:08:25;5.47;;;4.22;;
12052;SDS011;6087;48.982;12.064;2023-08-12T06:10:52;5.78;;;4.40;;
12052;SDS011;6087;48.982;12.064;2023-08-12T06:13:19;7.05;;;4.65;;
12052;SDS011;6087;48.982;12.064;2023-08-12T06:15:47;4.65;;;4.25;;
12052;SDS011;6087;48.982;12.064;2023-08-12T06:18:14;4.05;;;3.72;;
12052;SDS011;6087;48.982;12.064;2023-08-12T06:20:41;5.00;;;3.63;;
12052;SDS011;6087;48.982;12.064;2023-08-12T06:23:08;4.20;;;3.65;;
12052;SDS011;6087;48.982;12.064;2023-08-12T06:25:35;4.00;;;3.70;;
12052;SDS011;6087;48.982;12.064;2023-08-12T06:28:02;6.03;;;3.70;;
12052;SDS011;6087;48.982;12.064;2023-08-12T06:30:30;5.40;;;3.58;;
12052;SDS011;6087;48.982;12.064;2023-08-12T06:32:58;4.00;;;3.60;;
12052;SDS011;6087;48.982;12.064;2023-08-12T06:35:25;3.63;;;3.42;;
12052;SDS011;6087;48.982;12.064;2023-08-12T06:37:52;5.03;;;3.80;;
12052;SDS011;6087;48.982;12.064;2023-08-12T06:40:19;5.85;;;3.70;;
12052;SDS011;6087;48.982;12.064;2023-08-12T06:42:46;3.53;;;3.13;;
12052;SDS011;6087;48.982;12.064;2023-08-12T06:45:13;4.00;;;3.53;;
12052;SDS011;6087;48.982;12.064;2023-08-12T06:47:40;3.90;;;3.60;;
12052;SDS011;6087;48.982;12.064;2023-08-12T06:50:08;4.53;;;3.70;;
12052;SDS011;6087;48.982;12.064;2023-08-12T06:52:35;4.03;;;3.63;;
12052;SDS011;6087;48.982;12.064;2023-08-12T06:55:02;3.97;;;3.58;;
12052;SDS011;6087;48.982;12.064;2023-08-12T06:57:29;4.22;;;3.75;;
12052;SDS011;6087;48.982;12.064;2023-08-12T06:59:56;4.90;;;4.40;;
12052;SDS011;6087;48.982;12.064;2023-08-12T07:02:23;5.30;;;3.90;;
12052;SDS011;6087;48.982;12.064;2023-08-12T07:04:50;4.00;;;3.60;;
12052;SDS011;6087;48.982;12.064;2023-08-12T07:07:18;7.47;;;4.32;;
12052;SDS011;6087;48.982;12.064;2023-08-12T07:09:45;4.40;;;3.63;;
12052;SDS011;6087;48.982;12.064;2023-08-12T07:12:12;5.10;;;3.65;;
12052;SDS011;6087;48.982;12.064;2023-08-12T07:14:39;4.57;;;3.60;;
12052;SDS011;6087;48.982;12.064;2023-08-12T07:17:06;4.00;;;3.60;;
12052;SDS011;6087;48.982;12.064;2023-08-12T07:19:33;3.90;;;3.60;;
12052;SDS011;6087;48.982;12.064;2023-08-12T07:22:00;4.22;;;3.80;;
12052;SDS011;6087;48.982;12.064;2023-08-12T07:24:28;4.25;;;3.85;;
12052;SDS011;6087;48.982;12.064;2023-08-12T07:26:55;4.00;;;3.50;;
12052;SDS011;6087;48.982;12.064;2023-08-12T07:29:22;7.10;;;4.00;;
12052;SDS011;6087;48.982;12.064;2023-08-12T07:31:49;5.05;;;3.40;;
12052;SDS011;6087;48.982;12.064;2023-08-12T07:34:20;3.35;;;3.08;;
12052;SDS011;6087;48.982;12.064;2023-08-12T07:36:47;3.50;;;3.20;;
12052;SDS011;6087;48.982;12.064;2023-08-12T07:39:17;4.07;;;3.70;;
12052;SDS011;6087;48.982;12.064;2023-08-12T07:41:45;3.25;;;3.00;;
12052;SDS011;6087;48.982;12.064;2023-08-12T07:44:12;4.47;;;3.20;;
12052;SDS011;6087;48.982;12.064;2023-08-12T07:46:39;3.33;;;3.08;;
12052;SDS011;6087;48.982;12.064;2023-08-12T07:49:09;4.57;;;3.40;;
12052;SDS011;6087;48.982;12.064;2023-08-12T07:51:36;3.97;;;3.63;;
12052;SDS011;6087;48.982;12.064;2023-08-12T07:54:03;3.63;;;3.33;;
12052;SDS011;6087;48.982;12.064;2023-08-12T07:56:50;4.60;;;3.17;;
12052;SDS011;6087;48.982;12.064;2023-08-12T07:59:18;3.20;;;2.92;;
12052;SDS011;6087;48.982;12.064;2023-08-12T08:01:45;3.58;;;2.80;;
12052;SDS011;6087;48.982;12.064;2023-08-12T08:04:12;3.75;;;3.08;;
12052;SDS011;6087;48.982;12.064;2023-08-12T08:06:39;3.90;;;3.60;;
12052;SDS011;6087;48.982;12.064;2023-08-12T08:09:06;5.18;;;3.03;;
12052;SDS011;6087;48.982;12.064;2023-08-12T08:11:33;6.85;;;3.20;;
12052;SDS011;6087;48.982;12.064;2023-08-12T08:14:01;4.07;;;2.95;;
12052;SDS011;6087;48.982;12.064;2023-08-12T08:16:28;3.38;;;3.05;;
12052;SDS011;6087;48.982;12.064;2023-08-12T08:18:54;3.42;;;3.13;;
12052;SDS011;6087;48.982;12.064;2023-08-12T08:21:21;4.60;;;3.70;;
12052;SDS011;6087;48.982;12.064;2023-08-12T08:23:49;4.88;;;3.20;;
12052;SDS011;6087;48.982;12.064;2023-08-12T08:26:16;3.22;;;3.00;;
12052;SDS011;6087;48.982;12.064;2023-08-12T08:28:46;5.03;;;3.67;;
12052;SDS011;6087;48.982;12.064;2023-08-12T08:31:26;4.13;;;3.70;;
12052;SDS011;6087;48.982;12.064;2023-08-12T08:33:53;3.72;;;3.42;;
12052;SDS011;6087;48.982;12.064;2023-08-12T08:36:20;3.28;;;3.05;;
12052;SDS011;6087;48.982;12.064;2023-08-12T08:38:48;3.15;;;2.95;;
12052;SDS011;6087;48.982;12.064;2023-08-12T08:41:15;3.28;;;2.97;;
12052;SDS011;6087;48.982;12.064;2023-08-12T08:43:43;3.58;;;3.28;;
12052;SDS011;6087;48.982;12.064;2023-08-12T08:46:12;5.55;;;3.50;;
12052;SDS011;6087;48.982;12.064;2023-08-12T08:48:43;4.20;;;3.30;;
12052;SDS011;6087;48.982;12.064;2023-08-12T08:51:11;3.67;;;3.38;;
12052;SDS011;6087;48.982;12.064;2023-08-12T08:53:38;2.97;;;2.63;;
12052;SDS011;6087;48.982;12.064;2023-08-12T08:56:06;5.05;;;3.00;;
12052;SDS011;6087;48.982;12.064;2023-08-12T08:58:36;5.43;;;2.85;;
12052;SDS011;6087;48.982;12.064;2023-08-12T09:01:09;5.35;;;2.85;;
12052;SDS011;6087;48.982;12.064;2023-08-12T09:03:38;2.90;;;2.65;;
12052;SDS011;6087;48.982;12.064;2023-08-12T09:06:08;2.90;;;2.50;;
12052;SDS011;6087;48.982;12.064;2023-08-12T09:08:35;4.07;;;2.40;;
12052;SDS011;6087;48.982;12.064;2023-08-12T09:11:06;3.42;;;2.30;;
12052;SDS011;6087;48.982;12.064;2023-08-12T09:13:34;2.50;;;2.30;;
12052;SDS011;6087;48.982;12.064;2023-08-12T09:16:01;2.55;;;2.35;;
12052;SDS011;6087;48.982;12.064;2023-08-12T09:18:29;2.22;;;2.10;;
12052;SDS011;6087;48.982;12.064;2023-08-12T09:20:58;2.95;;;2.65;;
12052;SDS011;6087;48.982;12.064;2023-08-12T09:23:27;2.65;;;2.45;;
12052;SDS011;6087;48.982;12.064;2023-08-12T09:25:54;2.67;;;2.47;;
12052;SDS011;6087;48.982;12.064;2023-08-12T09:28:21;2.88;;;2.40;;
12052;SDS011;6087;48.982;12.064;2023-08-12T09:30:50;3.35;;;2.38;;
12052;SDS011;6087;48.982;12.064;2023-08-12T09:33:23;2.58;;;2.38;;
12052;SDS011;6087;48.982;12.064;2023-08-12T09:35:51;3.30;;;2.17;;
12052;SDS011;6087;48.982;12.064;2023-08-12T09:38:18;2.28;;;2.17;;
12052;SDS011;6087;48.982;12.064;2023-08-12T09:40:46;4.63;;;2.55;;
12052;SDS011;6087;48.982;12.064;2023-08-12T09:43:14;2.83;;;2.45;;
12052;SDS011;6087;48.982;12.064;2023-08-12T09:45:43;2.80;;;2.60;;
12052;SDS011;6087;48.982;12.064;2023-08-12T09:48:11;2.33;;;2.13;;
12052;SDS011;6087;48.982;12.064;2023-08-12T09:50:38;2.63;;;2.42;;
12052;SDS011;6087;48.982;12.064;2023-08-12T09:53:06;2.28;;;2.10;;
12052;SDS011;6087;48.982;12.064;2023-08-12T09:55:33;2.38;;;2.17;;
12052;SDS011;6087;48.982;12.064;2023-08-12T09:58:03;2.97;;;2.67;;
12052;SDS011;6087;48.982;12.064;2023-08-12T10:00:39;2.83;;;2.25;;
12052;SDS011;6087;48.982;12.064;2023-08-12T10:03:07;2.60;;;2.40;;
12052;SDS011;6087;48.982;12.064;2023-08-12T10:05:39;2.45;;;2.25;;
12052;SDS011;6087;48.982;12.064;2023-08-12T10:08:09;2.70;;;2.50;;
12052;SDS011;6087;48.982;12.064;2023-08-12T10:10:39;2.92;;;2.47;;
12052;SDS011;6087;48.982;12.064;2023-08-12T10:13:07;2.72;;;2.17;;
12052;SDS011;6087;48.982;12.064;2023-08-12T10:15:35;2.65;;;2.42;;
12052;SDS011;6087;48.982;12.064;2023-08-12T10:18:08;2.67;;;2.47;;
12052;SDS011;6087;48.982;12.064;2023-08-12T10:20:36;2.47;;;2.28;;
12052;SDS011;6087;48.982;12.064;2023-08-12T10:23:06;2.25;;;2.15;;
12052;SDS011;6087;48.982;12.064;2023-08-12T10:25:38;2.72;;;2.53;;
12052;SDS011;6087;48.982;12.064;2023-08-12T10:28:10;3.40;;;2.08;;
12052;SDS011;6087;48.982;12.064;2023-08-12T10:30:39;5.05;;;2.28;;
12052;SDS011;6087;48.982;12.064;2023-08-12T10:33:07;2.88;;;2.50;;
12052;SDS011;6087;48.982;12.064;2023-08-12T10:35:41;2.50;;;2.30;;
12052;SDS011;6087;48.982;12.064;2023-08-12T10:38:10;3.35;;;2.33;;
12052;SDS011;6087;48.982;12.064;2023-08-12T10:40:39;2.60;;;2.40;;
12052;SDS011;6087;48.982;12.064;2023-08-12T10:43:06;4.78;;;2.25;;
12052;SDS011;6087;48.982;12.064;2023-08-12T10:45:46;3.42;;;2.50;;
12052;SDS011;6087;48.982;12.064;2023-08-12T10:48:18;2.83;;;2.55;;
12052;SDS011;6087;48.982;12.064;2023-08-12T10:50:48;2.63;;;2.47;;
12052;SDS011;6087;48.982;12.064;2023-08-12T10:53:22;3.97;;;2.33;;
12052;SDS011;6087;48.982;12.064;2023-08-12T10:55:54;2.30;;;2.10;;
12052;SDS011;6087;48.982;12.064;2023-08-12T10:58:26;4.63;;;2.45;;
12052;SDS011;6087;48.982;12.064;2023-08-12T11:00:56;2.97;;;2.25;;
12052;SDS011;6087;48.982;12.064;2023-08-12T11:03:23;3.63;;;2.53;;
12052;SDS011;6087;48.982;12.064;2023-08-12T11:05:51;2.88;;;2.50;;
12052;SDS011;6087;48.982;12.064;2023-08-12T11:08:23;3.35;;;2.40;;
12052;SDS011;6087;48.982;12.064;2023-08-12T11:10:53;2.35;;;2.15;;
12052;SDS011;6087;48.982;12.064;2023-08-12T11:13:22;3.30;;;2.28;;
12052;SDS011;6087;48.982;12.064;2023-08-12T11:15:49;2.33;;;2.13;;
12052;SDS011;6087;48.982;12.064;2023-08-12T11:18:20;2.65;;;2.40;;
12052;SDS011;6087;48.982;12.064;2023-08-12T11:20:47;2.90;;;2.70;;
12052;SDS011;6087;48.982;12.064;2023-08-12T11:23:15;2.47;;;2.28;;
12052;SDS011;6087;48.982;12.064;2023-08-12T11:25:45;2.70;;;2.50;;
12052;SDS011;6087;48.982;12.064;2023-08-12T11:28:15;2.60;;;2.40;;
12052;SDS011;6087;48.982;12.064;2023-08-12T11:30:44;2.65;;;2.28;;
12052;SDS011;6087;48.982;12.064;2023-08-12T11:33:12;2.70;;;2.50;;
12052;SDS011;6087;48.982;12.064;2023-08-12T11:35:40;4.88;;;2.70;;
12052;SDS011;6087;48.982;12.064;2023-08-12T11:38:07;2.50;;;2.15;;
12052;SDS011;6087;48.982;12.064;2023-08-12T11:40:35;2.15;;;2.05;;
12052;SDS011;6087;48.982;12.064;2023-08-12T11:43:02;2.53;;;2.33;;
12052;SDS011;6087;48.982;12.064;2023-08-12T11:45:29;2.78;;;2.58;;
12052;SDS011;6087;48.982;12.064;2023-08-12T11:47:56;2.92;;;2.30;;
12052;SDS011;6087;48.982;12.064;2023-08-12T11:50:24;2.80;;;2.33;;
12052;SDS011;6087;48.982;12.064;2023-08-12T11:52:54;2.65;;;2.45;;
12052;SDS011;6087;48.982;12.064;2023-08-12T11:55:22;2.75;;;1.95;;
12052;SDS011;6087;48.982;12.064;2023-08-12T11:57:50;2.33;;;2.13;;
12052;SDS011;6087;48.982;12.064;2023-08-12T12:00:18;2.42;;;2.22;;
12052;SDS011;6087;48.982;12.064;2023-08-12T12:02:45;2.60;;;2.47;;
12052;SDS011;6087;48.982;12.064;2023-08-12T12:05:15;2.35;;;2.13;;
12052;SDS011;6087;48.982;12.064;2023-08-12T12:07:42;3.67;;;2.33;;
12052;SDS011;6087;48.982;12.064;2023-08-12T12:10:13;2.38;;;2.20;;
12052;SDS011;6087;48.982;12.064;2023-08-12T12:12:44;4.47;;;2.33;;
12052;SDS011;6087;48.982;12.064;2023-08-12T12:15:12;5.10;;;2.28;;
12052;SDS011;6087;48.982;12.064;2023-08-12T12:17:40;2.53;;;2.33;;
12052;SDS011;6087;48.982;12.064;2023-08-12T12:20:08;2.45;;;2.00;;
12052;SDS011;6087;48.982;12.064;2023-08-12T12:22:36;4.00;;;2.13;;
12052;SDS011;6087;48.982;12.064;2023-08-12T12:25:08;2.50;;;2.30;;
12052;SDS011;6087;48.982;12.064;2023-08-12T12:27:37;2.33;;;2.13;;
12052;SDS011;6087;48.982;12.064;2023-08-12T12:30:05;2.30;;;2.10;;
12052;SDS011;6087;48.982;12.064;2023-08-12T12:32:34;2.00;;;1.80;;
12052;SDS011;6087;48.982;12.064;2023-08-12T12:35:01;3.28;;;1.85;;
12052;SDS011;6087;48.982;12.064;2023-08-12T12:37:28;3.17;;;1.67;;
12052;SDS011;6087;48.982;12.064;2023-08-12T12:39:55;2.38;;;2.17;;
12052;SDS011;6087;48.982;12.064;2023-08-12T12:42:22;2.00;;;1.90;;
12052;SDS011;6087;48.982;12.064;2023-08-12T12:44:50;2.13;;;2.03;;
12052;SDS011;6087;48.982;12.064;2023-08-12T12:47:18;3.10;;;2.20;;
12052;SDS011;6087;48.982;12.064;2023-08-12T12:49:46;2.45;;;2.25;;
12052;SDS011;6087;48.982;12.064;2023-08-12T12:52:15;2.20;;;2.00;;
12052;SDS011;6087;48.982;12.064;2023-08-12T12:54:42;4.13;;;2.10;;
12052;SDS011;6087;48.982;12.064;2023-08-12T12:57:09;2.13;;;2.03;;
12052;SDS011;6087;48.982;12.064;2023-08-12T12:59:39;2.85;;;2.13;;
12052;SDS011;6087;48.982;12.064;2023-08-12T13:02:07;2.75;;;1.80;;
12052;SDS011;6087;48.982;12.064;2023-08-12T13:04:34;2.35;;;2.15;;
12052;SDS011;6087;48.982;12.064;2023-08-12T13:07:01;4.25;;;2.30;;
12052;SDS011;6087;48.982;12.064;2023-08-12T13:09:27;2.47;;;1.85;;
12052;SDS011;6087;48.982;12.064;2023-08-12T13:11:56;4.70;;;2.25;;
12052;SDS011;6087;48.982;12.064;2023-08-12T13:14:23;4.05;;;2.30;;
12052;SDS011;6087;48.982;12.064;2023-08-12T13:16:50;2.58;;;2.38;;
12052;SDS011;6087;48.982;12.064;2023-08-12T13:19:21;2.15;;;1.92;;
12052;SDS011;6087;48.982;12.064;2023-08-12T13:21:48;5.05;;;2.45;;
12052;SDS011;6087;48.982;12.064;2023-08-12T13:24:18;2.22;;;2.10;;
12052;SDS011;6087;48.982;12.064;2023-08-12T13:26:45;2.30;;;2.10;;
12052;SDS011;6087;48.982;12.064;2023-08-12T13:29:12;2.33;;;2.13;;
12052;SDS011;6087;48.982;12.064;2023-08-12T13:31:39;2.40;;;2.20;;
12052;SDS011;6087;48.982;12.064;2023-08-12T13:34:09;2.22;;;2.13;;
12052;SDS011;6087;48.982;12.064;2023-08-12T13:36:48;2.60;;;2.38;;
12052;SDS011;6087;48.982;12.064;2023-08-12T13:39:18;3.58;;;2.30;;
12052;SDS011;6087;48.982;12.064;2023-08-12T13:41:45;2.20;;;2.10;;
12052;SDS011;6087;48.982;12.064;2023-08-12T13:44:16;2.10;;;1.95;;
12052;SDS011;6087;48.982;12.064;2023-08-12T13:46:45;2.95;;;2.17;;
12052;SDS011;6087;48.982;12.064;2023-08-12T13:49:14;2.75;;;2.03;;
12052;SDS011;6087;48.982;12.064;2023-08-12T13:51:42;5.00;;;2.47;;
12052;SDS011;6087;48.982;12.064;2023-08-12T13:54:09;3.15;;;1.98;;
12052;SDS011;6087;48.982;12.064;2023-08-12T13:56:36;2.25;;;2.05;;
12052;SDS011;6087;48.982;12.064;2023-08-12T13:59:03;2.25;;;2.05;;
12052;SDS011;6087;48.982;12.064;2023-08-12T14:01:32;2.17;;;2.00;;
12052;SDS011;6087;48.982;12.064;2023-08-12T14:03:59;2.25;;;2.13;;
12052;SDS011;6087;48.982;12.064;2023-08-12T14:06:29;1.90;;;1.80;;
12052;SDS011;6087;48.982;12.064;2023-08-12T14:08:57;2.33;;;2.05;;
12052;SDS011;6087;48.982;12.064;2023-08-12T14:11:24;2.28;;;2.08;;
12052;SDS011;6087;48.982;12.064;2023-08-12T14:13:51;2.70;;;2.30;;
12052;SDS011;6087;48.982;12.064;2023-08-12T14:16:18;3.53;;;2.08;;
12052;SDS011;6087;48.982;12.064;2023-08-12T14:18:45;2.33;;;2.08;;
12052;SDS011;6087;48.982;12.064;2023-08-12T14:21:12;2.13;;;1.95;;
12052;SDS011;6087;48.982;12.064;2023-08-12T14:23:39;2.20;;;2.00;;
12052;SDS011;6087;48.982;12.064;2023-08-12T14:26:07;3.13;;;2.08;;
12052;SDS011;6087;48.982;12.064;2023-08-12T14:28:34;2.30;;;2.20;;
12052;SDS011;6087;48.982;12.064;2023-08-12T14:31:01;2.88;;;2.53;;
12052;SDS011;6087;48.982;12.064;2023-08-12T14:33:28;2.45;;;2.25;;
12052;SDS011;6087;48.982;12.064;2023-08-12T14:35:57;2.30;;;2.20;;
12052;SDS011;6087;48.982;12.064;2023-08-12T14:38:24;2.17;;;2.08;;
12052;SDS011;6087;48.982;12.064;2023-08-12T14:40:51;2.53;;;2.38;;
12052;SDS011;6087;48.982;12.064;2023-08-12T14:43:19;2.20;;;2.10;;
12052;SDS011;6087;48.982;12.064;2023-08-12T14:45:46;2.30;;;2.10;;
12052;SDS011;6087;48.982;12.064;2023-08-12T14:48:13;2.38;;;2.20;;
12052;SDS011;6087;48.982;12.064;2023-08-12T14:50:40;3.10;;;2.42;;
12052;SDS011;6087;48.982;12.064;2023-08-12T14:53:07;2.30;;;2.10;;